メインページ
METAR-TAF:

METAR-TAF

空港 :

ブダペスト, ハンガリー

リスト・フェレンツ国際空港

緯度: 47-26N, 経度: 019-16E, 海抜: 151m

現時点の気象観測

当レポートは26分前の15:10(UTC)に作成
西/南西の風 8kt、南/南西から西の間で変化する
気温 28°C
湿度 55%
気圧 1011 hPa
視程10km以上
高度4000ftの雲は散在している, 積乱雲.
高度8000ftの千切れ雲あり
近辺で激しい雷雨

METAR: LHBP 251510Z 24008KT 210V270 9999 VCTS SCT040CB BKN080 28/18 Q1011 TEMPO 25020G30KT 4000 TSRA

時間: 17:36 (15:36 UTC)


TAF: 見つかりません

4,000以上の空港の気象観測と天気予報(METAR報とTAF報)

利用可能な観測所は地図上に黄色い丸と赤い丸で示す。

丸の上にカーソルを重ねると観測所名を参照できる。

次にクリックすると気象観測と天気予報を参照できる。

マップの切り替え:黒色「×」印の緑ボタンをクリックして拡大、「-」印の緑ボタンをクリックして縮小、緑色の三角印をクリックして隣りの地図に切り替え


METAR-TAF: